sensor_id;sensor_type;location;lat;lon;timestamp;temperature;humidity
72919;SHT30;68407;55.694;26.994;2023-11-19T00:01:09;0;79.8
72919;SHT30;68407;55.694;26.994;2023-11-19T00:05:51;0;79.7
72919;SHT30;68407;55.694;26.994;2023-11-19T00:10:39;0;79.8
72919;SHT30;68407;55.694;26.994;2023-11-19T00:16:07;-0.1;80
72919;SHT30;68407;55.694;26.994;2023-11-19T00:21:19;-0.1;80
72919;SHT30;68407;55.694;26.994;2023-11-19T00:25:59;0;80.1
72919;SHT30;68407;55.694;26.994;2023-11-19T00:30:41;-0.1;80.2
72919;SHT30;68407;55.694;26.994;2023-11-19T00:35:43;0;80.2
72919;SHT30;68407;55.694;26.994;2023-11-19T00:40:39;0;80.5
72919;SHT30;68407;55.694;26.994;2023-11-19T00:46:19;0;80.9
72919;SHT30;68407;55.694;26.994;2023-11-19T00:51:07;-0.1;81.4
72919;SHT30;68407;55.694;26.994;2023-11-19T00:56:07;-0.1;81.7
72919;SHT30;68407;55.694;26.994;2023-11-19T01:00:49;-0.1;82.2
72919;SHT30;68407;55.694;26.994;2023-11-19T01:05:41;-0.1;82.5
72919;SHT30;68407;55.694;26.994;2023-11-19T01:11:19;-0.2;82.8
72919;SHT30;68407;55.694;26.994;2023-11-19T01:15:59;-0.2;82.9
72919;SHT30;68407;55.694;26.994;2023-11-19T01:20:41;-0.1;82.9
72919;SHT30;68407;55.694;26.994;2023-11-19T01:25:51;-0.1;82.8
72919;SHT30;68407;55.694;26.994;2023-11-19T01:30:41;-0.1;82.8
72919;SHT30;68407;55.694;26.994;2023-11-19T01:36:01;0;82.9
72919;SHT30;68407;55.694;26.994;2023-11-19T01:40:39;0;82.8
72919;SHT30;68407;55.694;26.994;2023-11-19T01:46:07;0;82.7
72919;SHT30;68407;55.694;26.994;2023-11-19T01:50:49;0.1;82.5
72919;SHT30;68407;55.694;26.994;2023-11-19T01:56:19;0.1;82.3
72919;SHT30;68407;55.694;26.994;2023-11-19T02:01:19;0.1;82
72919;SHT30;68407;55.694;26.994;2023-11-19T02:05:57;0.2;82
72919;SHT30;68407;55.694;26.994;2023-11-19T02:10:41;0.2;82.1
72919;SHT30;68407;55.694;26.994;2023-11-19T02:15:51;0.3;81.8
72919;SHT30;68407;55.694;26.994;2023-11-19T02:20:41;0.3;81.7
72919;SHT30;68407;55.694;26.994;2023-11-19T02:26:22;0.3;81.7
72919;SHT30;68407;55.694;26.994;2023-11-19T02:30:39;0.3;81.9
72919;SHT30;68407;55.694;26.994;2023-11-19T02:36:07;0.3;81.5
72919;SHT30;68407;55.694;26.994;2023-11-19T02:40:49;0.3;81.5
72919;SHT30;68407;55.694;26.994;2023-11-19T02:45:43;0.3;81.4
72919;SHT30;68407;55.694;26.994;2023-11-19T02:51:19;0.2;81.7
72919;SHT30;68407;55.694;26.994;2023-11-19T02:55:59;0.1;81.8
72919;SHT30;68407;55.694;26.994;2023-11-19T03:00:43;0.1;82
72919;SHT30;68407;55.694;26.994;2023-11-19T03:05:43;0;82
72919;SHT30;68407;55.694;26.994;2023-11-19T03:11:11;-0.1;82.1
72919;SHT30;68407;55.694;26.994;2023-11-19T03:16:19;-0.1;82.1
72919;SHT30;68407;55.694;26.994;2023-11-19T03:21:19;-0.1;82.2
72919;SHT30;68407;55.694;26.994;2023-11-19T03:26:07;-0.1;82.3
72919;SHT30;68407;55.694;26.994;2023-11-19T03:30:49;-0.1;82.3
72919;SHT30;68407;55.694;26.994;2023-11-19T03:35:59;-0.1;82.2
72919;SHT30;68407;55.694;26.994;2023-11-19T03:41:21;-0.2;82.4
72919;SHT30;68407;55.694;26.994;2023-11-19T03:45:39;-0.2;82.4
72919;SHT30;68407;55.694;26.994;2023-11-19T03:50:49;-0.1;82.5
72919;SHT30;68407;55.694;26.994;2023-11-19T03:55:39;-0.1;82.6
72919;SHT30;68407;55.694;26.994;2023-11-19T04:01:10;-0.1;82.5
72919;SHT30;68407;55.694;26.994;2023-11-19T04:06:21;-0.1;82.5
72919;SHT30;68407;55.694;26.994;2023-11-19T04:11:09;-0.1;82.5
72919;SHT30;68407;55.694;26.994;2023-11-19T04:16:07;-0.1;82.5
72919;SHT30;68407;55.694;26.994;2023-11-19T04:21:21;-0.2;82.6
72919;SHT30;68407;55.694;26.994;2023-11-19T04:25:39;-0.2;82.8
72919;SHT30;68407;55.694;26.994;2023-11-19T04:31:17;-0.2;82.9
72919;SHT30;68407;55.694;26.994;2023-11-19T04:35:57;-0.3;82.9
72919;SHT30;68407;55.694;26.994;2023-11-19T04:41:05;-0.3;83
72919;SHT30;68407;55.694;26.994;2023-11-19T04:45:41;-0.3;82.9
72919;SHT30;68407;55.694;26.994;2023-11-19T04:51:09;-0.3;83
72919;SHT30;68407;55.694;26.994;2023-11-19T04:56:17;-0.2;83
72919;SHT30;68407;55.694;26.994;2023-11-19T05:00:41;-0.3;83
72919;SHT30;68407;55.694;26.994;2023-11-19T05:05:59;-0.3;83.1
72919;SHT30;68407;55.694;26.994;2023-11-19T05:10:41;-0.3;83.3
72919;SHT30;68407;55.694;26.994;2023-11-19T05:16:07;-0.4;83.6
72919;SHT30;68407;55.694;26.994;2023-11-19T05:21:15;-0.4;83.8
72919;SHT30;68407;55.694;26.994;2023-11-19T05:25:41;-0.4;83.8
72919;SHT30;68407;55.694;26.994;2023-11-19T05:30:47;-0.4;83.8
72919;SHT30;68407;55.694;26.994;2023-11-19T05:35:39;-0.4;84
72919;SHT30;68407;55.694;26.994;2023-11-19T05:41:09;-0.4;84
72919;SHT30;68407;55.694;26.994;2023-11-19T05:46:17;-0.4;84
72919;SHT30;68407;55.694;26.994;2023-11-19T05:51:07;-0.3;83.9
72919;SHT30;68407;55.694;26.994;2023-11-19T05:55:59;-0.3;83.9
72919;SHT30;68407;55.694;26.994;2023-11-19T06:00:41;-0.3;83.9
72919;SHT30;68407;55.694;26.994;2023-11-19T06:05:39;-0.3;84
72919;SHT30;68407;55.694;26.994;2023-11-19T06:11:21;-0.2;83.7
72919;SHT30;68407;55.694;26.994;2023-11-19T06:15:41;-0.1;83.5
72919;SHT30;68407;55.694;26.994;2023-11-19T06:20:57;-0.1;83.4
72919;SHT30;68407;55.694;26.994;2023-11-19T06:25:39;0;83.4
72919;SHT30;68407;55.694;26.994;2023-11-19T06:30:59;-0.1;83.3
72919;SHT30;68407;55.694;26.994;2023-11-19T06:36:14;-0.1;83.5
72919;SHT30;68407;55.694;26.994;2023-11-19T06:41:15;-0.1;83.6
72919;SHT30;68407;55.694;26.994;2023-11-19T06:46:05;-0.1;83.7
72919;SHT30;68407;55.694;26.994;2023-11-19T06:51:15;-0.1;83.8
72919;SHT30;68407;55.694;26.994;2023-11-19T06:55:41;-0.1;83.9
72919;SHT30;68407;55.694;26.994;2023-11-19T07:01:03;-0.1;83.9
72919;SHT30;68407;55.694;26.994;2023-11-19T07:05:39;-0.1;83.9
72919;SHT30;68407;55.694;26.994;2023-11-19T07:10:39;-0.1;84
72919;SHT30;68407;55.694;26.994;2023-11-19T07:15:47;-0.1;84
72919;SHT30;68407;55.694;26.994;2023-11-19T07:20:53;-0.1;83.8
72919;SHT30;68407;55.694;26.994;2023-11-19T07:26:19;0;83.7
72919;SHT30;68407;55.694;26.994;2023-11-19T07:31:19;0.1;83.5
72919;SHT30;68407;55.694;26.994;2023-11-19T07:36:07;0.2;83.1
72919;SHT30;68407;55.694;26.994;2023-11-19T07:41:17;0.2;83.1
72919;SHT30;68407;55.694;26.994;2023-11-19T07:45:39;0.3;83.1
72919;SHT30;68407;55.694;26.994;2023-11-19T07:51:05;0.3;82.7
72919;SHT30;68407;55.694;26.994;2023-11-19T07:55:51;0.3;82.6
72919;SHT30;68407;55.694;26.994;2023-11-19T08:00:41;0.2;82.6
72919;SHT30;68407;55.694;26.994;2023-11-19T08:05:49;0.2;82.8
72919;SHT30;68407;55.694;26.994;2023-11-19T08:10:41;0.3;82.6
72919;SHT30;68407;55.694;26.994;2023-11-19T08:16:15;0.3;82.7
72919;SHT30;68407;55.694;26.994;2023-11-19T08:21:17;0.5;82.4
72919;SHT30;68407;55.694;26.994;2023-11-19T08:26:07;0.6;82
72919;SHT30;68407;55.694;26.994;2023-11-19T08:31:19;0.7;81.8
72919;SHT30;68407;55.694;26.994;2023-11-19T08:35:57;0.7;81.9
72919;SHT30;68407;55.694;26.994;2023-11-19T08:40:39;0.9;81.5
72919;SHT30;68407;55.694;26.994;2023-11-19T08:45:45;0.9;81.5
72919;SHT30;68407;55.694;26.994;2023-11-19T08:50:39;1.1;81.2
72919;SHT30;68407;55.694;26.994;2023-11-19T08:55:41;1.2;81
72919;SHT30;68407;55.694;26.994;2023-11-19T09:00:51;1.2;81.2
72919;SHT30;68407;55.694;26.994;2023-11-19T09:06:19;1.3;81.3
72919;SHT30;68407;55.694;26.994;2023-11-19T09:11:19;1.3;81.2
72919;SHT30;68407;55.694;26.994;2023-11-19T09:15:59;1.2;81.3
72919;SHT30;68407;55.694;26.994;2023-11-19T09:21:13;1;81.8
72919;SHT30;68407;55.694;26.994;2023-11-19T09:25:39;1;81.9
72919;SHT30;68407;55.694;26.994;2023-11-19T09:31:12;1;81.7
72919;SHT30;68407;55.694;26.994;2023-11-19T09:35:39;1;81.7
72919;SHT30;68407;55.694;26.994;2023-11-19T09:41:09;1;82.1
72919;SHT30;68407;55.694;26.994;2023-11-19T09:45:43;1;81.7
72919;SHT30;68407;55.694;26.994;2023-11-19T09:50:49;1;81.9
72919;SHT30;68407;55.694;26.994;2023-11-19T09:56:19;1;82.2
72919;SHT30;68407;55.694;26.994;2023-11-19T10:01:19;1.1;82.1
72919;SHT30;68407;55.694;26.994;2023-11-19T10:05:59;1;82.1
72919;SHT30;68407;55.694;26.994;2023-11-19T10:11:17;1;81.9
72919;SHT30;68407;55.694;26.994;2023-11-19T10:15:41;1;81.7
72919;SHT30;68407;55.694;26.994;2023-11-19T10:20:49;1;81.8
72919;SHT30;68407;55.694;26.994;2023-11-19T10:25:41;1.1;81.4
72919;SHT30;68407;55.694;26.994;2023-11-19T10:30:41;1.2;81.5
72919;SHT30;68407;55.694;26.994;2023-11-19T10:35:50;1.1;81.6
72919;SHT30;68407;55.694;26.994;2023-11-19T10:40:41;1.1;81.9
72919;SHT30;68407;55.694;26.994;2023-11-19T10:46:17;0.9;81.7
72919;SHT30;68407;55.694;26.994;2023-11-19T10:51:17;0.9;81.4
72919;SHT30;68407;55.694;26.994;2023-11-19T10:55:47;0.8;81.3
72919;SHT30;68407;55.694;26.994;2023-11-19T11:01:18;0.9;81.5
72919;SHT30;68407;55.694;26.994;2023-11-19T11:05:41;1;81.4
72919;SHT30;68407;55.694;26.994;2023-11-19T11:11:17;1;80.7
72919;SHT30;68407;55.694;26.994;2023-11-19T11:15:39;1;80.9
72919;SHT30;68407;55.694;26.994;2023-11-19T11:20:41;1.1;80.7
72919;SHT30;68407;55.694;26.994;2023-11-19T11:25:58;1.1;80.8
72919;SHT30;68407;55.694;26.994;2023-11-19T11:30:46;1;81
72919;SHT30;68407;55.694;26.994;2023-11-19T11:36:00;1;80.9
72919;SHT30;68407;55.694;26.994;2023-11-19T11:41:23;0.9;81.2
72919;SHT30;68407;55.694;26.994;2023-11-19T11:47:24;0.9;81.6
72919;SHT30;68407;55.694;26.994;2023-11-19T11:51:19;1;81.5
72919;SHT30;68407;55.694;26.994;2023-11-19T11:55:52;0.9;81.4
72919;SHT30;68407;55.694;26.994;2023-11-19T12:01:17;0.8;81.8
72919;SHT30;68407;55.694;26.994;2023-11-19T12:05:40;0.8;81.6
72919;SHT30;68407;55.694;26.994;2023-11-19T12:10:43;0.8;81.5
72919;SHT30;68407;55.694;26.994;2023-11-19T12:16:06;0.8;81.9
72919;SHT30;68407;55.694;26.994;2023-11-19T12:20:39;0.8;82
72919;SHT30;68407;55.694;26.994;2023-11-19T12:25:55;0.8;81.9
72919;SHT30;68407;55.694;26.994;2023-11-19T12:31:06;0.7;81.9
72919;SHT30;68407;55.694;26.994;2023-11-19T12:36:15;0.8;82.2
72919;SHT30;68407;55.694;26.994;2023-11-19T12:41:15;0.8;82.3
72919;SHT30;68407;55.694;26.994;2023-11-19T12:45:39;0.8;82.3
72919;SHT30;68407;55.694;26.994;2023-11-19T12:51:17;0.9;82.4
72919;SHT30;68407;55.694;26.994;2023-11-19T12:55:39;0.9;82.6
72919;SHT30;68407;55.694;26.994;2023-11-19T13:00:39;0.8;82.4
72919;SHT30;68407;55.694;26.994;2023-11-19T13:06:02;0.8;82.5
72919;SHT30;68407;55.694;26.994;2023-11-19T13:10:51;0.8;82.4
72919;SHT30;68407;55.694;26.994;2023-11-19T13:15:41;0.8;82.7
72919;SHT30;68407;55.694;26.994;2023-11-19T13:20:57;0.7;82.8
72919;SHT30;68407;55.694;26.994;2023-11-19T13:26:19;0.7;82.8
72919;SHT30;68407;55.694;26.994;2023-11-19T13:31:19;0.5;83
72919;SHT30;68407;55.694;26.994;2023-11-19T13:35:59;0.6;83.2
72919;SHT30;68407;55.694;26.994;2023-11-19T13:41:17;0.6;83.2
72919;SHT30;68407;55.694;26.994;2023-11-19T13:45:39;0.4;83.2
72919;SHT30;68407;55.694;26.994;2023-11-19T13:50:39;0.3;83.6
72919;SHT30;68407;55.694;26.994;2023-11-19T13:55:57;0.2;83.9
72919;SHT30;68407;55.694;26.994;2023-11-19T14:00:49;0.1;84.3
72919;SHT30;68407;55.694;26.994;2023-11-19T14:05:57;0.1;84.7
72919;SHT30;68407;55.694;26.994;2023-11-19T14:10:57;0.1;84.7
72919;SHT30;68407;55.694;26.994;2023-11-19T14:16:17;0;85
72919;SHT30;68407;55.694;26.994;2023-11-19T14:21:19;0;85.2
72919;SHT30;68407;55.694;26.994;2023-11-19T14:25:57;0;85.1
72919;SHT30;68407;55.694;26.994;2023-11-19T14:31:17;0.1;85.4
72919;SHT30;68407;55.694;26.994;2023-11-19T14:35:51;0.1;85.3
72919;SHT30;68407;55.694;26.994;2023-11-19T14:40:39;0.1;85.5
72919;SHT30;68407;55.694;26.994;2023-11-19T14:45:57;0.1;85.5
72919;SHT30;68407;55.694;26.994;2023-11-19T14:51:07;0;85.6
72919;SHT30;68407;55.694;26.994;2023-11-19T14:55:57;-0.1;85.6
72919;SHT30;68407;55.694;26.994;2023-11-19T15:01:01;0;85.7
72919;SHT30;68407;55.694;26.994;2023-11-19T15:06:22;0.1;85.8
72919;SHT30;68407;55.694;26.994;2023-11-19T15:11:17;0.1;85.9
72919;SHT30;68407;55.694;26.994;2023-11-19T15:15:59;0.1;86.1
72919;SHT30;68407;55.694;26.994;2023-11-19T15:21:17;0;86.2
72919;SHT30;68407;55.694;26.994;2023-11-19T15:25:45;0;86.8
72919;SHT30;68407;55.694;26.994;2023-11-19T15:30:41;0.1;86.7
72919;SHT30;68407;55.694;26.994;2023-11-19T15:35:57;0.1;86.8
72919;SHT30;68407;55.694;26.994;2023-11-19T15:40:49;0.1;87
72919;SHT30;68407;55.694;26.994;2023-11-19T15:45:57;0;87.1
72919;SHT30;68407;55.694;26.994;2023-11-19T15:51:00;0;87.4
72919;SHT30;68407;55.694;26.994;2023-11-19T15:56:15;0.1;87.6
72919;SHT30;68407;55.694;26.994;2023-11-19T16:01:19;0.1;87.7
72919;SHT30;68407;55.694;26.994;2023-11-19T16:05:59;0.3;87.6
72919;SHT30;68407;55.694;26.994;2023-11-19T16:11:21;0.3;87.5
72919;SHT30;68407;55.694;26.994;2023-11-19T16:15:40;0.4;87.4
72919;SHT30;68407;55.694;26.994;2023-11-19T16:20:43;0.5;87.1
72919;SHT30;68407;55.694;26.994;2023-11-19T16:25:49;0.6;87.1
72919;SHT30;68407;55.694;26.994;2023-11-19T16:30:53;0.6;86.6
72919;SHT30;68407;55.694;26.994;2023-11-19T16:36:01;0.7;86.6
72919;SHT30;68407;55.694;26.994;2023-11-19T16:40:41;0.7;86.5
72919;SHT30;68407;55.694;26.994;2023-11-19T16:46:17;0.7;86.5
72919;SHT30;68407;55.694;26.994;2023-11-19T16:51:19;0.8;86.5
72919;SHT30;68407;55.694;26.994;2023-11-19T16:55:57;0.8;86.4
72919;SHT30;68407;55.694;26.994;2023-11-19T17:01:17;0.8;86.5
72919;SHT30;68407;55.694;26.994;2023-11-19T17:05:49;0.8;86.2
72919;SHT30;68407;55.694;26.994;2023-11-19T17:10:59;0.8;86.1
72919;SHT30;68407;55.694;26.994;2023-11-19T17:15:41;0.8;86.2
72919;SHT30;68407;55.694;26.994;2023-11-19T17:20:49;0.7;85.5
72919;SHT30;68407;55.694;26.994;2023-11-19T17:25:57;0.7;85.3
72919;SHT30;68407;55.694;26.994;2023-11-19T17:30:59;0.8;85.2
72919;SHT30;68407;55.694;26.994;2023-11-19T17:36:17;0.8;85.1
72919;SHT30;68407;55.694;26.994;2023-11-19T17:41:19;0.8;85.1
72919;SHT30;68407;55.694;26.994;2023-11-19T17:45:39;0.8;85.2
72919;SHT30;68407;55.694;26.994;2023-11-19T17:50:53;0.8;85.3
72919;SHT30;68407;55.694;26.994;2023-11-19T17:55:39;0.8;85.4
72919;SHT30;68407;55.694;26.994;2023-11-19T18:00:39;0.8;85.6
72919;SHT30;68407;55.694;26.994;2023-11-19T18:05:57;0.9;85.6
72919;SHT30;68407;55.694;26.994;2023-11-19T18:10:49;1;85.5
72919;SHT30;68407;55.694;26.994;2023-11-19T18:15:59;1;85.5
72919;SHT30;68407;55.694;26.994;2023-11-19T18:20:59;0.9;85.6
72919;SHT30;68407;55.694;26.994;2023-11-19T18:26:20;0.8;85.9
72919;SHT30;68407;55.694;26.994;2023-11-19T18:31:21;0.8;85.9
72919;SHT30;68407;55.694;26.994;2023-11-19T18:36:01;0.8;85.8
72919;SHT30;68407;55.694;26.994;2023-11-19T18:41:19;0.8;85.9
72919;SHT30;68407;55.694;26.994;2023-11-19T18:45:39;0.8;86.1
72919;SHT30;68407;55.694;26.994;2023-11-19T18:50:39;0.9;86
72919;SHT30;68407;55.694;26.994;2023-11-19T18:56:12;0.9;85.9
72919;SHT30;68407;55.694;26.994;2023-11-19T19:00:49;0.9;85.9
72919;SHT30;68407;55.694;26.994;2023-11-19T19:06:19;0.9;86
72919;SHT30;68407;55.694;26.994;2023-11-19T19:10:39;0.9;86.2
72919;SHT30;68407;55.694;26.994;2023-11-19T19:16:19;0.9;86.2
72919;SHT30;68407;55.694;26.994;2023-11-19T19:21:17;0.9;86.2
72919;SHT30;68407;55.694;26.994;2023-11-19T19:25:55;0.9;86.3
72919;SHT30;68407;55.694;26.994;2023-11-19T19:31:19;0.9;86.6
72919;SHT30;68407;55.694;26.994;2023-11-19T19:35:39;0.9;86.6
72919;SHT30;68407;55.694;26.994;2023-11-19T19:40:47;0.9;86.7
72919;SHT30;68407;55.694;26.994;2023-11-19T19:45:49;0.9;87
72919;SHT30;68407;55.694;26.994;2023-11-19T19:50:43;0.9;87
72919;SHT30;68407;55.694;26.994;2023-11-19T19:56:01;1;87.1
72919;SHT30;68407;55.694;26.994;2023-11-19T20:00:49;0.9;87.1
72919;SHT30;68407;55.694;26.994;2023-11-19T20:05:49;0.9;87.2
72919;SHT30;68407;55.694;26.994;2023-11-19T20:11:19;0.9;87.3
72919;SHT30;68407;55.694;26.994;2023-11-19T20:16:19;1;87.4
72919;SHT30;68407;55.694;26.994;2023-11-19T20:20:39;1;87.4
72919;SHT30;68407;55.694;26.994;2023-11-19T20:25:49;1;87.5
72919;SHT30;68407;55.694;26.994;2023-11-19T20:30:39;1;87.8
72919;SHT30;68407;55.694;26.994;2023-11-19T20:35:51;1.1;87.9
72919;SHT30;68407;55.694;26.994;2023-11-19T20:40:43;1.1;87.8
72919;SHT30;68407;55.694;26.994;2023-11-19T20:46:07;1.1;87.8
72919;SHT30;68407;55.694;26.994;2023-11-19T20:51:01;1.1;87.8
72919;SHT30;68407;55.694;26.994;2023-11-19T20:55:41;1.2;87.7
72919;SHT30;68407;55.694;26.994;2023-11-19T21:01:21;1.3;87.7
72919;SHT30;68407;55.694;26.994;2023-11-19T21:06:09;1.3;87.6
72919;SHT30;68407;55.694;26.994;2023-11-19T21:10:59;1.3;87.5
72919;SHT30;68407;55.694;26.994;2023-11-19T21:15:51;1.3;87.5
72919;SHT30;68407;55.694;26.994;2023-11-19T21:20:39;1.3;87.6
72919;SHT30;68407;55.694;26.994;2023-11-19T21:26:17;1.4;87.5
72919;SHT30;68407;55.694;26.994;2023-11-19T21:31:09;1.4;87.5
72919;SHT30;68407;55.694;26.994;2023-11-19T21:35:49;1.4;87.5
72919;SHT30;68407;55.694;26.994;2023-11-19T21:40:59;1.4;87.5
72919;SHT30;68407;55.694;26.994;2023-11-19T21:45:39;1.4;87.6
72919;SHT30;68407;55.694;26.994;2023-11-19T21:51:19;1.4;87.6
72919;SHT30;68407;55.694;26.994;2023-11-19T21:56:11;1.5;87.6
72919;SHT30;68407;55.694;26.994;2023-11-19T22:00:39;1.5;87.6
72919;SHT30;68407;55.694;26.994;2023-11-19T22:05:47;1.5;87.5
72919;SHT30;68407;55.694;26.994;2023-11-19T22:10:59;1.5;87.6
72919;SHT30;68407;55.694;26.994;2023-11-19T22:16:19;1.5;87.5
72919;SHT30;68407;55.694;26.994;2023-11-19T22:20:59;1.6;87.3
72919;SHT30;68407;55.694;26.994;2023-11-19T22:25:49;1.6;87.4
72919;SHT30;68407;55.694;26.994;2023-11-19T22:30:59;1.6;87.5
72919;SHT30;68407;55.694;26.994;2023-11-19T22:35:51;1.6;87.5
72919;SHT30;68407;55.694;26.994;2023-11-19T22:41:19;1.6;87.5
72919;SHT30;68407;55.694;26.994;2023-11-19T22:45:41;1.6;87.5
72919;SHT30;68407;55.694;26.994;2023-11-19T22:50:39;1.6;87.5
72919;SHT30;68407;55.694;26.994;2023-11-19T22:55:39;1.6;87.3
72919;SHT30;68407;55.694;26.994;2023-11-19T23:00:41;1.6;87.3
72919;SHT30;68407;55.694;26.994;2023-11-19T23:06:17;1.6;87.2
72919;SHT30;68407;55.694;26.994;2023-11-19T23:10:39;1.6;87.2
72919;SHT30;68407;55.694;26.994;2023-11-19T23:15:59;1.6;87.1
72919;SHT30;68407;55.694;26.994;2023-11-19T23:21:01;1.7;87
72919;SHT30;68407;55.694;26.994;2023-11-19T23:25:51;1.7;86.9
72919;SHT30;68407;55.694;26.994;2023-11-19T23:31:19;1.7;86.9
72919;SHT30;68407;55.694;26.994;2023-11-19T23:35:59;1.7;86.8
72919;SHT30;68407;55.694;26.994;2023-11-19T23:40:41;1.8;86.6
72919;SHT30;68407;55.694;26.994;2023-11-19T23:45:41;1.7;86.7
72919;SHT30;68407;55.694;26.994;2023-11-19T23:50:41;1.7;86.8
72919;SHT30;68407;55.694;26.994;2023-11-19T23:56:17;1.6;86.9
